Lahore Weather



Lahore's Current Weather

Temprature 12o mist

mist

Rain: 0 %

Min Temprature12o
Max Temprature12o
Humidity82
Wind Speed2.57 m/h
Sun Rise07:00:07
Sun Set17:28:26
Current Time: 23-Jan-2021 19:10:49
Lat/Lon: 31.5497, 74.3436




Lahore's Geo Location



Lahore's Weather Forecast

Time Overall Temp Min Temp Max Temp Humidity Wind Speed Rain
23-Jan-2021 (Sat)
20:00:00 scattered clouds 11.900 11.790 11.900 71 3.45 m/h 0 %
23:00:00 few clouds 10.720 10.370 10.720 76 2.45 m/h 0 %
24-Jan-2021 (Sun)
02:00:00 clear sky 9.440 9.260 9.440 80 3.44 m/h 0 %
05:00:00 clear sky 8.890 8.860 8.890 84 2.7 m/h 0 %
08:00:00 clear sky 9.940 9.940 9.940 78 2.11 m/h 0 %
11:00:00 clear sky 17.630 17.630 17.630 47 2.51 m/h 0 %
14:00:00 clear sky 21.370 21.370 21.370 27 2.53 m/h 0 %
17:00:00 clear sky 18.240 18.240 18.240 41 2.47 m/h 0 %
20:00:00 clear sky 13.620 13.620 13.620 54 2.19 m/h 0 %
23:00:00 clear sky 11.760 11.760 11.760 51 2.13 m/h 0 %
25-Jan-2021 (Mon)
02:00:00 clear sky 10.360 10.360 10.360 47 2.22 m/h 0 %
05:00:00 clear sky 9.300 9.300 9.300 50 1.75 m/h 0 %
08:00:00 clear sky 10.700 10.700 10.700 46 1.31 m/h 0 %
11:00:00 clear sky 19.070 19.070 19.070 32 1.49 m/h 0 %
14:00:00 clear sky 22.240 22.240 22.240 29 1.66 m/h 0 %
17:00:00 clear sky 18.980 18.980 18.980 35 1.53 m/h 0 %
20:00:00 clear sky 13.940 13.940 13.940 46 1.69 m/h 0 %
23:00:00 clear sky 12.020 12.020 12.020 48 1.05 m/h 0 %
26-Jan-2021 (Tue)
02:00:00 clear sky 10.780 10.780 10.780 51 1.43 m/h 0 %
05:00:00 clear sky 9.490 9.490 9.490 57 1.13 m/h 0 %
08:00:00 clear sky 11.050 11.050 11.050 51 0.74 m/h 0 %
11:00:00 clear sky 19.210 19.210 19.210 27 2.3 m/h 0 %
14:00:00 clear sky 21.820 21.820 21.820 23 2.92 m/h 0 %
17:00:00 clear sky 18.410 18.410 18.410 28 2.38 m/h 0 %
20:00:00 clear sky 13.120 13.120 13.120 39 1.32 m/h 0 %
23:00:00 clear sky 11.430 11.430 11.430 44 0.98 m/h 0 %
27-Jan-2021 (Wed)
02:00:00 clear sky 9.960 9.960 9.960 51 1.44 m/h 0 %
05:00:00 clear sky 8.500 8.500 8.500 56 0.74 m/h 0 %
08:00:00 clear sky 10.320 10.320 10.320 49 1.18 m/h 0 %
11:00:00 clear sky 18.520 18.520 18.520 28 2.65 m/h 0 %
14:00:00 clear sky 21.520 21.520 21.520 23 3.49 m/h 0 %
17:00:00 clear sky 18.160 18.160 18.160 28 2.35 m/h 0 %
20:00:00 clear sky 12.550 12.550 12.550 40 1.11 m/h 0 %
23:00:00 clear sky 10.540 10.540 10.540 45 0.84 m/h 0 %
28-Jan-2021 (Thu)
02:00:00 clear sky 9.200 9.200 9.200 50 1.18 m/h 0 %
05:00:00 clear sky 7.810 7.810 7.810 54 1.19 m/h 0 %
08:00:00 clear sky 9.540 9.540 9.540 48 1.07 m/h 0 %
11:00:00 clear sky 18.270 18.270 18.270 27 2.11 m/h 0 %
14:00:00 clear sky 21.790 21.790 21.790 21 3.58 m/h 0 %
17:00:00 clear sky 18.180 18.180 18.180 27 2.57 m/h 0 %


Lahore's Tourist Spots

Historical Places in Lahore

Famous Cities (60)